createdAt,value
2022-08-03T00:01:38.341Z,97091.88
2022-08-03T00:04:05.430Z,97128.69
2022-08-03T00:06:36.734Z,97143.22
2022-08-03T00:09:04.795Z,97101.66
2022-08-03T00:11:31.414Z,97092.22
2022-08-03T00:13:58.149Z,97108.75
2022-08-03T00:16:24.811Z,97133.47
2022-08-03T00:18:51.401Z,97111.03
2022-08-03T00:21:18.301Z,97118.28
2022-08-03T00:23:51.312Z,97113.66
2022-08-03T00:26:22.467Z,97105.63
2022-08-03T00:28:49.788Z,97103.38
2022-08-03T00:31:16.545Z,97131.88
2022-08-03T00:33:59.948Z,97094.16
2022-08-03T00:36:30.285Z,97107.28
2022-08-03T00:38:56.917Z,97107.81
2022-08-03T00:41:23.657Z,97109.03
2022-08-03T00:43:50.423Z,97109.03
2022-08-03T00:46:21.418Z,97106.41
2022-08-03T00:48:52.049Z,97088.00
2022-08-03T00:51:22.877Z,97090.06
2022-08-03T00:53:49.879Z,97099.16
2022-08-03T00:56:17.062Z,97096.53
2022-08-03T00:58:44.283Z,97085.63
2022-08-03T01:01:11.242Z,97094.06
2022-08-03T01:03:38.298Z,97118.16
2022-08-03T01:06:48.108Z,97101.47
2022-08-03T01:09:17.693Z,97116.75
2022-08-03T01:12:00.543Z,97116.47
2022-08-03T01:14:31.941Z,97093.13
2022-08-03T01:17:02.311Z,97108.84
2022-08-03T01:19:46.593Z,97101.44
2022-08-03T01:22:40.652Z,97076.56
2022-08-03T01:25:14.731Z,97090.66
2022-08-03T01:28:03.120Z,97087.19
2022-08-03T01:30:33.621Z,97087.53
2022-08-03T01:33:10.287Z,97105.97
2022-08-03T01:35:43.045Z,97088.09
2022-08-03T01:38:24.512Z,97103.16
2022-08-03T01:40:52.664Z,97085.22
2022-08-03T01:43:55.108Z,97102.28
2022-08-03T01:46:06.906Z,97085.34
2022-08-03T01:48:33.608Z,97075.53
2022-08-03T01:51:00.273Z,97093.19
2022-08-03T01:53:27.014Z,97088.56
2022-08-03T01:55:54.697Z,97071.13
2022-08-03T01:58:21.446Z,97085.72
2022-08-03T02:00:49.367Z,97083.94
2022-08-03T02:03:16.877Z,97086.38
2022-08-03T02:05:44.656Z,97084.13
2022-08-03T02:08:13.119Z,97099.59
2022-08-03T02:10:40.406Z,97103.81
2022-08-03T02:13:08.123Z,97083.66
2022-08-03T02:15:35.875Z,97093.28
2022-08-03T02:18:02.610Z,97095.84
2022-08-03T02:20:29.324Z,97084.53
2022-08-03T02:22:55.996Z,97100.03
2022-08-03T02:25:22.770Z,97094.09
2022-08-03T02:27:55.211Z,97091.16
2022-08-03T02:30:21.854Z,97088.09
2022-08-03T02:32:55.513Z,97094.19
2022-08-03T02:35:23.339Z,97101.25
2022-08-03T02:37:53.963Z,97080.34
2022-08-03T02:40:20.617Z,97073.97
2022-08-03T02:42:47.517Z,97079.09
2022-08-03T02:45:14.196Z,97082.75
2022-08-03T02:47:54.306Z,97090.72
2022-08-03T02:50:22.470Z,97076.03
2022-08-03T02:52:49.248Z,97079.94
2022-08-03T02:55:15.915Z,97085.19
2022-08-03T02:57:42.628Z,97087.38
2022-08-03T03:00:09.707Z,97097.44
2022-08-03T03:02:36.758Z,97085.63
2022-08-03T03:05:53.534Z,97088.69
2022-08-03T03:07:52.232Z,97082.00
2022-08-03T03:10:23.115Z,97077.06
2022-08-03T03:12:55.627Z,97096.44
2022-08-03T03:15:23.352Z,97087.66
2022-08-03T03:17:50.148Z,97074.22
2022-08-03T03:20:16.846Z,97086.03
2022-08-03T03:22:56.646Z,97053.13
2022-08-03T03:25:23.389Z,97078.38
2022-08-03T03:27:50.893Z,97078.41
2022-08-03T03:30:17.600Z,97077.09
2022-08-03T03:32:44.283Z,97082.84
2022-08-03T03:35:10.938Z,97096.59
2022-08-03T03:37:37.553Z,97093.25
2022-08-03T03:40:04.640Z,97105.91
2022-08-03T03:42:31.386Z,97082.25
2022-08-03T03:44:58.026Z,97069.28
2022-08-03T03:47:32.770Z,97094.72
2022-08-03T03:49:59.649Z,97089.13
2022-08-03T03:52:26.304Z,97106.06
2022-08-03T03:54:56.321Z,97074.09
2022-08-03T03:57:25.648Z,97094.22
2022-08-03T03:59:52.388Z,97115.47
2022-08-03T04:02:19.039Z,97095.19
2022-08-03T04:04:45.691Z,97106.19
2022-08-03T04:07:12.400Z,97127.13
2022-08-03T04:09:39.227Z,97112.91
2022-08-03T04:12:05.972Z,97121.38
2022-08-03T04:14:35.818Z,97127.13
2022-08-03T04:17:05.019Z,97096.94
2022-08-03T04:19:41.284Z,97112.13
2022-08-03T04:22:10.760Z,97101.75
2022-08-03T04:24:43.167Z,97116.59
2022-08-03T04:27:11.648Z,97104.28
2022-08-03T04:29:48.246Z,97111.78
2022-08-03T04:32:16.116Z,97112.28
2022-08-03T04:34:43.002Z,97103.97
2022-08-03T04:37:12.315Z,97123.59
2022-08-03T04:39:39.212Z,97106.34
2022-08-03T04:42:09.062Z,97121.53
2022-08-03T04:44:37.583Z,97140.09
2022-08-03T04:47:04.413Z,97122.97
2022-08-03T04:49:31.159Z,97145.03
2022-08-03T04:51:57.823Z,97127.00
2022-08-03T04:54:24.589Z,97137.84
2022-08-03T04:56:51.231Z,97131.63
2022-08-03T04:59:17.936Z,97143.75
2022-08-03T05:01:44.905Z,97125.38
2022-08-03T05:04:11.675Z,97121.06
2022-08-03T05:06:47.851Z,97144.38
2022-08-03T05:09:15.286Z,97127.94
2022-08-03T05:12:01.911Z,97135.13
2022-08-03T05:14:29.181Z,97154.31
2022-08-03T05:16:55.851Z,97136.72
2022-08-03T05:19:24.415Z,97126.00
2022-08-03T05:21:52.402Z,97138.66
2022-08-03T05:24:19.674Z,97143.44
2022-08-03T05:26:46.378Z,97116.91
2022-08-03T05:29:13.019Z,97130.31
2022-08-03T05:31:39.705Z,97133.84
2022-08-03T05:34:06.688Z,97149.50
2022-08-03T05:36:33.408Z,97148.38
2022-08-03T05:39:02.813Z,97152.84
2022-08-03T05:41:37.430Z,97151.06
2022-08-03T05:44:04.647Z,97145.25
2022-08-03T05:46:31.585Z,97166.72
2022-08-03T05:48:58.314Z,97146.69
2022-08-03T05:51:25.225Z,97146.00
2022-08-03T05:53:51.843Z,97149.69
2022-08-03T05:56:23.082Z,97146.47
2022-08-03T05:58:49.717Z,97161.31
2022-08-03T06:01:17.083Z,97136.09
2022-08-03T06:03:44.672Z,97137.81
2022-08-03T06:06:11.815Z,97150.41
2022-08-03T06:08:38.647Z,97127.19
2022-08-03T06:11:05.400Z,97155.75
2022-08-03T06:13:32.149Z,97158.59
2022-08-03T06:15:59.045Z,97175.94
2022-08-03T06:18:25.772Z,97139.47
2022-08-03T06:20:52.850Z,97143.06
2022-08-03T06:23:19.999Z,97149.31
2022-08-03T06:25:47.048Z,97139.94
2022-08-03T06:28:35.234Z,97158.72
2022-08-03T06:31:00.769Z,97164.09
2022-08-03T06:34:31.478Z,97139.31
2022-08-03T06:36:14.634Z,97152.50
2022-08-03T06:38:41.325Z,97148.03
2022-08-03T06:41:08.205Z,97163.50
2022-08-03T06:43:35.790Z,97160.19
2022-08-03T06:46:03.058Z,97153.38
2022-08-03T06:48:29.780Z,97164.53
2022-08-03T06:50:57.132Z,97170.81
2022-08-03T06:53:23.925Z,97154.16
2022-08-03T06:55:54.381Z,97161.91
2022-08-03T06:58:21.983Z,97172.81
2022-08-03T07:00:48.666Z,97168.00
2022-08-03T07:03:15.310Z,97158.19
2022-08-03T07:05:42.574Z,97177.78
2022-08-03T07:08:09.907Z,97155.72
2022-08-03T07:10:36.577Z,97159.91
2022-08-03T07:13:03.396Z,97153.84
2022-08-03T07:15:55.304Z,97169.97
2022-08-03T07:18:16.834Z,97150.06
2022-08-03T07:20:43.559Z,97162.75
2022-08-03T07:23:10.301Z,97160.78
2022-08-03T07:25:45.953Z,97130.16
2022-08-03T07:28:13.113Z,97157.06
2022-08-03T07:30:40.147Z,97168.81
2022-08-03T07:33:07.106Z,97134.34
2022-08-03T07:35:35.098Z,97163.59
2022-08-03T07:38:01.932Z,97149.97
2022-08-03T07:40:30.632Z,97121.66
2022-08-03T07:42:58.813Z,97176.16
2022-08-03T07:45:25.531Z,97144.81
2022-08-03T07:47:53.472Z,97173.66
2022-08-03T07:50:20.520Z,97145.75
2022-08-03T07:52:47.173Z,97142.91
2022-08-03T07:55:13.779Z,97141.53
2022-08-03T07:57:40.448Z,97159.34
2022-08-03T08:00:08.704Z,97125.63
2022-08-03T08:02:36.352Z,97154.13
2022-08-03T08:05:05.680Z,97159.91
2022-08-03T08:07:32.948Z,97156.59
2022-08-03T08:09:59.930Z,97135.91
2022-08-03T08:12:26.653Z,97155.38
2022-08-03T08:14:54.174Z,97133.94
2022-08-03T08:17:20.829Z,97122.63
2022-08-03T08:19:51.715Z,97130.25
2022-08-03T08:22:28.755Z,97108.47
2022-08-03T08:25:01.300Z,97140.03
2022-08-03T08:27:28.336Z,97108.66
2022-08-03T08:30:19.114Z,97122.44
2022-08-03T08:32:46.367Z,97130.06
2022-08-03T08:35:13.246Z,97130.66
2022-08-03T08:37:40.523Z,97116.88
2022-08-03T08:40:07.806Z,97138.38
2022-08-03T08:42:35.932Z,97161.63
2022-08-03T08:45:02.672Z,97123.63
2022-08-03T08:47:50.840Z,97135.75
2022-08-03T08:50:27.833Z,97136.69
2022-08-03T08:52:56.194Z,97112.13
2022-08-03T08:55:23.279Z,97137.00
2022-08-03T08:57:52.313Z,97128.38
2022-08-03T09:00:19.830Z,97149.00
2022-08-03T09:02:46.850Z,97140.66
2022-08-03T09:05:14.876Z,97155.00
2022-08-03T09:07:42.363Z,97130.56
2022-08-03T09:10:12.699Z,97157.34
2022-08-03T09:12:42.940Z,97142.44
2022-08-03T09:15:28.932Z,97124.59
2022-08-03T09:17:56.930Z,97115.75
2022-08-03T09:20:24.759Z,97113.72
2022-08-03T09:22:52.909Z,97095.00
2022-08-03T09:25:24.644Z,97136.78
2022-08-03T09:27:51.789Z,97103.53
2022-08-03T09:30:33.231Z,97118.53
2022-08-03T09:33:05.836Z,97110.69
2022-08-03T09:35:53.193Z,97099.63
2022-08-03T09:38:21.093Z,97108.97
2022-08-03T09:40:47.815Z,97114.16
2022-08-03T09:43:16.783Z,97124.38
2022-08-03T09:45:43.706Z,97121.72
2022-08-03T09:48:29.041Z,97124.47
2022-08-03T09:51:14.393Z,97124.00
2022-08-03T09:53:58.758Z,97090.09
2022-08-03T09:56:43.631Z,97129.03
2022-08-03T09:59:11.310Z,97117.69
2022-08-03T10:01:38.181Z,97112.19
2022-08-03T10:04:05.467Z,97132.06
2022-08-03T10:06:32.355Z,97098.72
2022-08-03T10:09:15.383Z,97067.47
2022-08-03T10:11:42.835Z,97084.63
2022-08-03T10:14:10.836Z,97094.66
2022-08-03T10:16:38.962Z,97120.00
2022-08-03T10:19:07.174Z,97104.97
2022-08-03T10:21:49.588Z,97101.41
2022-08-03T10:24:17.281Z,97107.66
2022-08-03T10:26:49.577Z,97089.06
2022-08-03T10:29:24.374Z,97103.59
2022-08-03T10:31:57.715Z,97080.06
2022-08-03T10:34:26.480Z,97060.75
2022-08-03T10:36:55.676Z,97094.63
2022-08-03T10:39:23.000Z,97078.53
2022-08-03T10:41:51.273Z,97088.84
2022-08-03T10:44:21.639Z,97077.41
2022-08-03T10:46:48.664Z,97068.84
2022-08-03T10:49:16.366Z,97085.78
2022-08-03T10:51:54.465Z,97054.16
2022-08-03T10:54:43.797Z,97050.34
2022-08-03T10:57:42.689Z,97066.78
2022-08-03T11:00:09.984Z,97057.50
2022-08-03T11:03:12.498Z,97045.56
2022-08-03T11:05:40.969Z,97045.56
2022-08-03T11:08:26.004Z,97026.31
2022-08-03T11:11:16.288Z,97038.94
2022-08-03T11:14:16.397Z,97052.28
2022-08-03T11:17:07.241Z,97053.28
2022-08-03T11:19:57.023Z,97038.63
2022-08-03T11:22:24.986Z,97064.41
2022-08-03T11:24:57.743Z,97064.31
2022-08-03T11:27:28.584Z,97042.06
2022-08-03T11:29:55.201Z,97034.56
2022-08-03T11:32:46.862Z,97047.38
2022-08-03T11:35:18.254Z,97026.84
2022-08-03T11:38:03.311Z,97025.22
2022-08-03T11:40:34.567Z,97051.81
2022-08-03T11:43:01.576Z,97044.03
2022-08-03T11:45:28.236Z,97030.75
2022-08-03T11:47:55.614Z,97047.47
2022-08-03T11:50:22.548Z,97041.47
2022-08-03T11:52:50.494Z,97030.06
2022-08-03T11:55:19.558Z,97030.38
2022-08-03T11:59:10.591Z,97046.16
2022-08-03T12:00:33.020Z,97024.44
2022-08-03T12:02:59.573Z,97030.28
2022-08-03T12:05:37.963Z,97040.69
2022-08-03T12:08:06.917Z,97013.22
2022-08-03T12:10:33.985Z,97053.84
2022-08-03T12:13:00.988Z,97038.50
2022-08-03T12:15:28.953Z,97024.00
2022-08-03T12:17:57.992Z,97007.63
2022-08-03T12:20:34.887Z,96995.75
2022-08-03T12:23:03.459Z,97005.81
2022-08-03T12:25:39.580Z,97002.94
2022-08-03T12:28:36.060Z,97020.09
2022-08-03T12:31:06.599Z,97020.50
2022-08-03T12:33:36.939Z,97030.00
2022-08-03T12:36:07.466Z,96996.63
2022-08-03T12:38:36.447Z,97000.50
2022-08-03T12:41:08.066Z,96990.63
2022-08-03T12:43:39.368Z,96989.97
2022-08-03T12:46:14.241Z,96984.72
2022-08-03T12:49:00.974Z,96960.41
2022-08-03T12:51:33.436Z,96996.06
2022-08-03T12:54:00.198Z,97019.38
2022-08-03T12:56:26.842Z,96986.94
2022-08-03T12:58:53.541Z,97009.19
2022-08-03T13:01:20.626Z,96975.97
2022-08-03T13:03:53.014Z,96979.31
2022-08-03T13:06:44.175Z,96985.19
2022-08-03T13:09:10.937Z,96980.56
2022-08-03T13:11:55.751Z,96998.50
2022-08-03T13:14:24.361Z,96999.88
2022-08-03T13:16:51.129Z,97005.34
2022-08-03T13:19:17.836Z,96997.78
2022-08-03T13:22:01.931Z,96985.59
2022-08-03T13:24:32.035Z,96943.75
2022-08-03T13:26:59.663Z,96946.78
2022-08-03T13:29:26.914Z,96943.44
2022-08-03T13:31:53.574Z,96983.31
2022-08-03T13:34:23.632Z,96976.16
2022-08-03T13:37:09.321Z,96960.47
2022-08-03T13:39:58.433Z,96960.56
2022-08-03T13:42:27.396Z,96960.91
2022-08-03T13:44:54.137Z,96959.44
2022-08-03T13:47:21.855Z,96970.94
2022-08-03T13:49:59.780Z,96954.06
2022-08-03T13:52:28.221Z,97010.56
2022-08-03T13:54:54.949Z,96945.69
2022-08-03T13:58:03.676Z,96983.44
2022-08-03T14:00:10.429Z,96966.97
2022-08-03T14:02:37.806Z,96938.00
2022-08-03T14:05:05.035Z,96949.88
2022-08-03T14:07:32.304Z,96956.84
2022-08-03T14:09:59.049Z,96954.78
2022-08-03T14:12:25.748Z,96950.31
2022-08-03T14:14:52.646Z,96942.41
2022-08-03T14:17:19.821Z,96943.38
2022-08-03T14:19:53.610Z,96965.72
2022-08-03T14:22:24.333Z,96940.03
2022-08-03T14:24:51.056Z,96940.13
2022-08-03T14:27:18.471Z,96938.13
2022-08-03T14:29:45.126Z,96948.53
2022-08-03T14:32:13.527Z,96942.00
2022-08-03T14:34:40.954Z,96930.63
2022-08-03T14:37:08.765Z,96956.97
2022-08-03T14:42:25.260Z,96918.25
2022-08-03T14:44:52.317Z,96908.25
2022-08-03T14:47:19.212Z,96920.53
2022-08-03T14:50:36.289Z,96938.75
2022-08-03T14:52:33.254Z,96924.44
2022-08-03T14:55:00.160Z,96908.59
2022-08-03T14:57:26.955Z,96921.66
2022-08-03T14:59:56.105Z,96922.19
2022-08-03T15:02:26.866Z,96930.47
2022-08-03T15:04:54.078Z,96913.91
2022-08-03T15:07:21.106Z,96955.78
2022-08-03T15:09:48.025Z,96935.06
2022-08-03T15:12:14.687Z,96906.50
2022-08-03T15:14:41.390Z,96894.59
2022-08-03T15:17:08.011Z,96893.56
2022-08-03T15:20:01.028Z,96932.47
2022-08-03T15:22:34.850Z,96928.69
2022-08-03T15:26:06.471Z,96895.97
2022-08-03T15:28:03.366Z,96912.66
2022-08-03T15:30:31.812Z,96905.41
2022-08-03T15:32:59.198Z,96920.09
2022-08-03T15:35:25.871Z,96906.59
2022-08-03T15:37:52.575Z,96912.38
2022-08-03T15:40:19.233Z,96896.25
2022-08-03T15:42:45.970Z,96922.28
2022-08-03T15:45:12.737Z,96900.16
2022-08-03T15:47:39.610Z,96907.66
2022-08-03T15:50:09.642Z,96911.16
2022-08-03T15:52:36.624Z,96907.88
2022-08-03T15:55:03.856Z,96905.16
2022-08-03T15:57:30.594Z,96891.41
2022-08-03T15:59:57.269Z,96892.41
2022-08-03T16:02:23.945Z,96921.94
2022-08-03T16:04:50.730Z,96898.84
2022-08-03T16:07:17.465Z,96910.09
2022-08-03T16:09:44.471Z,96895.34
2022-08-03T16:12:11.842Z,96904.31
2022-08-03T16:14:53.403Z,96898.59
2022-08-03T16:17:22.681Z,96897.97
2022-08-03T16:19:49.710Z,96899.34
2022-08-03T16:22:16.325Z,96889.41
2022-08-03T16:24:43.019Z,96893.66
2022-08-03T16:27:15.545Z,96889.09
2022-08-03T16:29:44.575Z,96891.03
2022-08-03T16:32:11.423Z,96874.03
2022-08-03T16:34:39.468Z,96883.84
2022-08-03T16:37:28.464Z,96873.94
2022-08-03T16:39:53.326Z,96880.41
2022-08-03T16:42:21.076Z,96894.88
2022-08-03T16:44:47.688Z,96894.44
2022-08-03T16:47:22.254Z,96895.16
2022-08-03T16:49:55.582Z,96891.59
2022-08-03T16:52:23.621Z,96896.06
2022-08-03T16:54:53.195Z,96900.28
2022-08-03T16:57:31.823Z,96893.38
2022-08-03T17:00:10.897Z,96900.69
2022-08-03T17:02:37.716Z,96881.06
2022-08-03T17:05:04.749Z,96889.84
2022-08-03T17:07:32.032Z,96883.28
2022-08-03T17:09:58.663Z,96912.66
2022-08-03T17:12:26.907Z,96897.06
2022-08-03T17:14:54.437Z,96897.63
2022-08-03T17:17:24.316Z,96885.50
2022-08-03T17:19:54.275Z,96901.41
2022-08-03T17:22:24.636Z,96887.53
2022-08-03T17:24:51.895Z,96883.69
2022-08-03T17:28:49.288Z,96916.53
2022-08-03T17:30:12.274Z,96920.19
2022-08-03T17:32:52.479Z,96906.06
2022-08-03T17:35:34.560Z,96907.41
2022-08-03T17:38:06.672Z,96902.00
2022-08-03T17:40:35.861Z,96935.75
2022-08-03T17:44:14.328Z,96907.56
2022-08-03T17:45:52.823Z,96901.47
2022-08-03T17:48:24.966Z,96905.72
2022-08-03T17:51:00.567Z,96923.31
2022-08-03T17:53:31.537Z,96911.06
2022-08-03T17:56:38.856Z,96927.78
2022-08-03T18:02:57.037Z,96912.84
2022-08-03T18:05:23.802Z,96908.25
2022-08-03T18:08:11.804Z,96925.75
2022-08-03T18:10:38.480Z,96928.59
2022-08-03T18:13:31.603Z,96912.25
2022-08-03T18:16:00.956Z,96927.31
2022-08-03T18:18:38.654Z,96907.63
2022-08-03T18:21:06.775Z,96935.31
2022-08-03T18:23:37.568Z,96922.69
2022-08-03T18:26:10.735Z,96922.72
2022-08-03T18:28:38.966Z,96929.78
2022-08-03T18:31:06.200Z,96932.16
2022-08-03T18:34:17.194Z,96968.03
2022-08-03T18:36:30.404Z,96927.72
2022-08-03T18:38:59.350Z,96935.59
2022-08-03T18:41:32.871Z,96930.00
2022-08-03T18:44:07.181Z,96931.44
2022-08-03T18:46:41.679Z,96941.59
2022-08-03T18:49:16.654Z,96928.88
2022-08-03T18:51:47.006Z,96950.84
2022-08-03T18:54:46.681Z,96927.44
2022-08-03T18:57:41.323Z,96952.38
2022-08-03T19:00:12.204Z,96941.75
2022-08-03T19:02:54.659Z,96934.41
2022-08-03T19:05:23.324Z,96953.16
2022-08-03T19:08:17.829Z,96965.25
2022-08-03T19:10:57.485Z,96937.47
2022-08-03T19:13:31.105Z,96927.25
2022-08-03T19:16:03.250Z,96948.31
2022-08-03T19:18:29.986Z,96940.41
2022-08-03T19:20:57.197Z,96946.59
2022-08-03T19:23:24.535Z,96966.44
2022-08-03T19:25:51.809Z,96958.16
2022-08-03T19:28:20.424Z,96963.13
2022-08-03T19:30:56.486Z,96938.63
2022-08-03T19:33:25.797Z,96938.91
2022-08-03T19:35:57.336Z,96930.97
2022-08-03T19:38:28.146Z,96957.88
2022-08-03T19:41:01.050Z,96952.84
2022-08-03T19:43:53.140Z,96963.38
2022-08-03T19:46:22.486Z,96963.66
2022-08-03T19:49:00.763Z,96947.69
2022-08-03T19:52:00.737Z,96948.78
2022-08-03T19:54:18.026Z,96952.91
2022-08-03T19:56:56.659Z,96962.72
2022-08-03T19:59:23.277Z,96974.28
2022-08-03T20:01:53.129Z,96960.44
2022-08-03T20:04:24.789Z,96941.09
2022-08-03T20:06:51.477Z,96926.34
2022-08-03T20:09:19.741Z,96930.97
2022-08-03T20:11:47.502Z,96967.75
2022-08-03T20:14:20.703Z,96945.75
2022-08-03T20:16:53.239Z,96946.63
2022-08-03T20:19:20.114Z,96957.09
2022-08-03T20:21:47.620Z,96978.00
2022-08-03T20:24:24.720Z,96963.66
2022-08-03T20:26:56.553Z,96972.56
2022-08-03T20:30:05.003Z,96961.09
2022-08-03T20:32:19.128Z,96958.44
2022-08-03T20:34:51.152Z,96956.78
2022-08-03T20:37:19.752Z,96941.19
2022-08-03T20:39:49.548Z,96952.53
2022-08-03T20:42:21.068Z,96962.69
2022-08-03T20:45:04.392Z,96949.63
2022-08-03T20:47:31.709Z,96959.50
2022-08-03T20:50:02.655Z,96944.41
2022-08-03T20:52:31.058Z,96969.47
2022-08-03T20:54:57.986Z,96965.06
2022-08-03T20:57:25.697Z,96942.91
2022-08-03T21:00:00.690Z,96933.81
2022-08-03T21:02:29.546Z,96956.06
2022-08-03T21:04:58.955Z,96948.25
2022-08-03T21:08:04.508Z,96940.75
2022-08-03T21:10:17.908Z,96973.28
2022-08-03T21:12:44.459Z,96952.47
2022-08-03T21:12:56.082Z,96915.41
2022-08-03T21:15:11.368Z,96957.84
2022-08-03T21:17:59.467Z,96937.28
2022-08-03T21:20:30.421Z,96957.56
2022-08-03T21:22:57.733Z,96941.06
2022-08-03T21:25:26.770Z,96954.84
2022-08-03T21:27:54.474Z,96941.41
2022-08-03T21:30:22.554Z,96956.41
2022-08-03T21:32:50.010Z,96946.50
2022-08-03T21:35:16.760Z,96940.94
2022-08-03T21:37:43.713Z,96972.91
2022-08-03T21:40:11.271Z,96965.94
2022-08-03T21:42:39.124Z,96972.78
2022-08-03T21:45:15.189Z,96956.41
2022-08-03T21:47:43.739Z,96968.69
2022-08-03T21:50:11.720Z,96953.78
2022-08-03T21:52:44.000Z,96955.28
2022-08-03T21:55:20.846Z,96958.84
2022-08-03T21:57:51.306Z,96969.66
2022-08-03T22:00:18.777Z,96966.72
2022-08-03T22:02:53.152Z,96963.28
2022-08-03T22:05:28.823Z,96980.69
2022-08-03T22:08:09.202Z,96964.53
2022-08-03T22:10:36.507Z,96950.78
2022-08-03T22:13:03.265Z,96952.06
2022-08-03T22:15:31.530Z,96950.59
2022-08-03T22:17:58.236Z,96952.97
2022-08-03T22:20:26.550Z,96981.97
2022-08-03T22:22:55.922Z,96957.53
2022-08-03T22:25:26.528Z,96942.19
2022-08-03T22:27:53.268Z,96934.34
2022-08-03T22:30:19.930Z,96957.41
2022-08-03T22:32:46.725Z,96961.53
2022-08-03T22:35:13.912Z,96973.78
2022-08-03T22:37:41.026Z,96942.09
2022-08-03T22:40:09.129Z,96938.56
2022-08-03T22:42:35.873Z,96968.22
2022-08-03T22:45:03.870Z,96962.63
2022-08-03T22:47:30.475Z,96949.13
2022-08-03T22:50:31.948Z,96950.16
2022-08-03T22:52:44.554Z,96957.19
2022-08-03T22:55:12.821Z,96960.50
2022-08-03T22:57:55.705Z,96948.44
2022-08-03T23:00:23.093Z,96955.25
2022-08-03T23:02:49.796Z,96966.94
2022-08-03T23:06:01.530Z,96957.63
2022-08-03T23:08:15.259Z,96954.78
2022-08-03T23:10:46.789Z,96953.75
2022-08-03T23:13:15.239Z,96957.28
2022-08-03T23:15:41.956Z,96970.91
2022-08-03T23:18:08.525Z,96995.59
2022-08-03T23:20:35.205Z,96977.88
2022-08-03T23:23:03.609Z,96979.13
2022-08-03T23:25:31.616Z,96971.63
2022-08-03T23:28:04.891Z,96977.56
2022-08-03T23:30:34.504Z,96998.91
2022-08-03T23:33:01.124Z,96985.59
2022-08-03T23:36:27.550Z,96957.88
2022-08-03T23:38:22.696Z,96975.56
2022-08-03T23:40:51.234Z,96988.59
2022-08-03T23:43:51.044Z,96984.09
2022-08-03T23:46:07.015Z,96967.50
2022-08-03T23:48:34.121Z,96961.38
2022-08-03T23:51:05.495Z,96962.72
2022-08-03T23:53:44.391Z,96960.28
2022-08-03T23:56:16.997Z,96966.06
2022-08-03T23:59:05.186Z,96961.56
